Redington, Nebraska
Current Conditions -  °F | °C
As of 4:53 AM on Sunday 23 Nov 2014 (Local Time) from KAIA Reporting Station
Clear Clear  
Wind Chill: 24°   Ceiling: Unl
Heat Index: 36°   Visibility: 10mi
Dew Point: 18°   Wind: 24mph
Humidity: 48%   Direction: 310°NW
Pressure: 29.64"   Gusts: 32mph
Location:  41.7379°N, 102.935°W
Report Text: KAIA 231153Z AUTO 31021G28KT 10SM CLR 02/M08 A2964 RMK AO2 PK WND 31028/1144 SLP030 T00221078 10056 20000 51006
Loading
Personal Weather Stations






























Interactive Weather Map New forecast layout! Learn more

10-Day Weather Forecast

Advertisements
Track Severe Weather on mobile